createdAt,value
2023-05-16T00:01:38.209Z,99020.00
2023-05-16T00:04:06.486Z,99015.00
2023-05-16T00:06:34.823Z,99018.00
2023-05-16T00:09:04.233Z,99015.00
2023-05-16T00:11:32.156Z,99019.00
2023-05-16T00:14:01.426Z,99023.00
2023-05-16T00:16:29.964Z,99020.00
2023-05-16T00:19:01.290Z,99025.00
2023-05-16T00:21:29.661Z,99031.00
2023-05-16T00:23:57.589Z,99030.00
2023-05-16T00:26:27.160Z,99016.00
2023-05-16T00:28:55.017Z,99025.00
2023-05-16T00:31:23.056Z,99020.00
2023-05-16T00:33:52.838Z,99030.00
2023-05-16T00:36:22.217Z,99026.00
2023-05-16T00:38:51.762Z,99021.00
2023-05-16T00:41:19.834Z,99028.00
2023-05-16T00:43:49.125Z,99029.00
2023-05-16T00:46:17.067Z,99031.00
2023-05-16T00:48:45.471Z,99033.00
2023-05-16T00:51:13.643Z,99038.00
2023-05-16T00:53:41.587Z,99049.00
2023-05-16T00:56:09.563Z,99050.00
2023-05-16T00:58:38.559Z,99050.00
2023-05-16T01:01:08.816Z,99043.00
2023-05-16T01:03:38.013Z,99053.00
2023-05-16T01:06:07.999Z,99061.00
2023-05-16T01:08:35.892Z,99064.00
2023-05-16T01:11:13.393Z,99069.00
2023-05-16T01:13:56.714Z,99059.00
2023-05-16T01:16:38.284Z,99056.00
2023-05-16T01:19:24.330Z,99064.00
2023-05-16T01:22:05.444Z,99056.00
2023-05-16T01:24:43.678Z,99053.00
2023-05-16T01:27:14.957Z,99057.00
2023-05-16T01:29:42.937Z,99062.00
2023-05-16T01:32:11.167Z,99069.00
2023-05-16T01:34:39.028Z,99077.00
2023-05-16T01:37:17.904Z,99077.00
2023-05-16T01:39:57.587Z,99081.00
2023-05-16T01:42:33.848Z,99076.00
2023-05-16T01:45:12.520Z,99067.00
2023-05-16T01:47:48.536Z,99078.00
2023-05-16T01:50:18.678Z,99067.00
2023-05-16T01:52:52.870Z,99079.00
2023-05-16T01:55:33.018Z,99086.00
2023-05-16T01:58:05.859Z,99078.00
2023-05-16T02:00:33.881Z,99085.00
2023-05-16T02:03:01.860Z,99089.00
2023-05-16T02:05:29.922Z,99094.00
2023-05-16T02:08:00.135Z,99100.00
2023-05-16T02:10:28.873Z,99092.00
2023-05-16T02:12:56.943Z,99091.00
2023-05-16T02:15:26.395Z,99088.00
2023-05-16T02:17:54.702Z,99098.00
2023-05-16T02:20:22.842Z,99098.00
2023-05-16T02:22:50.812Z,99103.00
2023-05-16T02:25:18.814Z,99100.00
2023-05-16T02:27:46.813Z,99099.00
2023-05-16T02:30:15.142Z,99100.00
2023-05-16T02:32:45.136Z,99098.00
2023-05-16T02:35:13.581Z,99099.00
2023-05-16T02:37:41.908Z,99106.00
2023-05-16T02:40:11.604Z,99096.00
2023-05-16T02:42:39.504Z,99109.00
2023-05-16T02:45:08.469Z,99107.00
2023-05-16T02:47:36.395Z,99115.00
2023-05-16T02:50:06.871Z,99117.00
2023-05-16T02:52:35.872Z,99118.00
2023-05-16T02:55:21.018Z,99124.00
2023-05-16T02:57:51.834Z,99129.00
2023-05-16T03:00:20.655Z,99128.00
2023-05-16T03:02:49.933Z,99128.00
2023-05-16T03:05:19.580Z,99135.00
2023-05-16T03:07:47.537Z,99138.00
2023-05-16T03:10:16.100Z,99146.00
2023-05-16T03:12:44.475Z,99149.00
2023-05-16T03:15:14.041Z,99146.00
2023-05-16T03:17:42.021Z,99151.00
2023-05-16T03:20:12.236Z,99154.00
2023-05-16T03:22:41.547Z,99158.00
2023-05-16T03:25:11.931Z,99155.00
2023-05-16T03:27:42.124Z,99158.00
2023-05-16T03:30:11.138Z,99161.00
2023-05-16T03:32:39.578Z,99161.00
2023-05-16T03:35:08.209Z,99161.00
2023-05-16T03:37:36.168Z,99170.00
2023-05-16T03:40:08.132Z,99170.00
2023-05-16T03:42:36.120Z,99179.00
2023-05-16T03:45:06.582Z,99175.00
2023-05-16T03:47:34.587Z,99182.00
2023-05-16T03:50:03.245Z,99192.00
2023-05-16T03:52:31.121Z,99198.00
2023-05-16T03:54:58.961Z,99203.00
2023-05-16T03:57:28.233Z,99198.00
2023-05-16T03:59:56.203Z,99202.00
2023-05-16T04:02:24.253Z,99194.00
2023-05-16T04:04:52.301Z,99209.00
2023-05-16T04:07:22.490Z,99208.00
2023-05-16T04:09:52.844Z,99198.00
2023-05-16T04:12:20.866Z,99225.00
2023-05-16T04:14:51.234Z,99193.00
2023-05-16T04:17:19.438Z,99237.00
2023-05-16T04:19:47.513Z,99244.00
2023-05-16T04:22:15.464Z,99232.00
2023-05-16T04:24:43.567Z,99242.00
2023-05-16T04:27:12.191Z,99251.00
2023-05-16T04:29:40.196Z,99250.00
2023-05-16T04:32:09.661Z,99257.00
2023-05-16T04:34:39.753Z,99264.00
2023-05-16T04:37:09.515Z,99256.00
2023-05-16T04:39:37.908Z,99260.00
2023-05-16T04:42:07.396Z,99285.00
2023-05-16T04:44:35.480Z,99281.00
2023-05-16T04:47:03.409Z,99284.00
2023-05-16T04:49:32.767Z,99290.00
2023-05-16T04:52:00.686Z,99297.00
2023-05-16T04:54:28.533Z,99293.00
2023-05-16T04:56:57.318Z,99299.00
2023-05-16T04:59:25.224Z,99296.00
2023-05-16T05:01:53.203Z,99289.00
2023-05-16T05:04:22.359Z,99285.00
2023-05-16T05:06:51.638Z,99296.00
2023-05-16T05:09:19.537Z,99296.00
2023-05-16T05:11:47.616Z,99299.00
2023-05-16T05:14:15.521Z,99311.00
2023-05-16T05:16:43.399Z,99307.00
2023-05-16T05:19:11.430Z,99304.00
2023-05-16T05:21:39.367Z,99294.00
2023-05-16T05:24:08.929Z,99292.00
2023-05-16T05:26:37.126Z,99292.00
2023-05-16T05:29:06.236Z,99295.00
2023-05-16T05:31:35.312Z,99300.00
2023-05-16T05:34:03.842Z,99305.00
2023-05-16T05:36:31.900Z,99306.00
2023-05-16T05:39:00.178Z,99314.00
2023-05-16T05:41:29.433Z,99309.00
2023-05-16T05:43:57.376Z,99317.00
2023-05-16T05:46:26.269Z,99332.00
2023-05-16T05:48:54.284Z,99338.00
2023-05-16T05:51:22.394Z,99336.00
2023-05-16T05:53:50.453Z,99340.00
2023-05-16T05:56:18.484Z,99333.00
2023-05-16T05:58:48.190Z,99348.00
2023-05-16T06:01:16.080Z,99359.00
2023-05-16T06:03:44.375Z,99364.00
2023-05-16T06:06:12.319Z,99359.00
2023-05-16T06:08:40.197Z,99365.00
2023-05-16T06:11:09.354Z,99373.00
2023-05-16T06:13:37.365Z,99387.00
2023-05-16T06:16:08.862Z,99381.00
2023-05-16T06:18:37.513Z,99385.00
2023-05-16T06:21:06.547Z,99383.00
2023-05-16T06:23:35.803Z,99378.00
2023-05-16T06:26:04.153Z,99372.00
2023-05-16T06:28:32.091Z,99372.00
2023-05-16T06:31:00.068Z,99374.00
2023-05-16T06:33:29.325Z,99368.00
2023-05-16T06:35:57.299Z,99371.00
2023-05-16T06:38:25.219Z,99363.00
2023-05-16T06:40:53.140Z,99375.00
2023-05-16T06:43:21.107Z,99388.00
2023-05-16T06:45:49.092Z,99392.00
2023-05-16T06:48:19.372Z,99386.00
2023-05-16T06:50:51.830Z,99393.00
2023-05-16T06:53:20.172Z,99392.00
2023-05-16T06:55:48.921Z,99397.00
2023-05-16T06:58:16.911Z,99397.00
2023-05-16T07:00:45.028Z,99398.00
2023-05-16T07:03:14.515Z,99398.00
2023-05-16T07:05:42.849Z,99400.00
2023-05-16T07:08:12.200Z,99396.00
2023-05-16T07:10:40.231Z,99403.00
2023-05-16T07:13:08.548Z,99398.00
2023-05-16T07:15:36.739Z,99399.00
2023-05-16T07:18:05.382Z,99407.00
2023-05-16T07:20:33.449Z,99410.00
2023-05-16T07:23:01.720Z,99408.00
2023-05-16T07:25:31.152Z,99415.00
2023-05-16T07:28:02.691Z,99407.00
2023-05-16T07:30:30.812Z,99412.00
2023-05-16T07:32:59.270Z,99415.00
2023-05-16T07:35:27.460Z,99402.00
2023-05-16T07:37:55.759Z,99391.00
2023-05-16T07:40:28.230Z,99388.00
2023-05-16T07:42:57.575Z,99390.00
2023-05-16T07:45:25.839Z,99391.00
2023-05-16T07:47:54.201Z,99403.00
2023-05-16T07:50:22.472Z,99401.00
2023-05-16T07:52:50.441Z,99403.00
2023-05-16T07:55:18.560Z,99418.00
2023-05-16T07:57:46.965Z,99401.00
2023-05-16T08:00:18.172Z,99404.00
2023-05-16T08:02:46.906Z,99410.00
2023-05-16T08:05:15.046Z,99411.00
2023-05-16T08:07:42.976Z,99404.00
2023-05-16T08:10:13.377Z,99413.00
2023-05-16T08:12:41.679Z,99430.00
2023-05-16T08:15:11.140Z,99417.00
2023-05-16T08:17:40.562Z,99422.00
2023-05-16T08:20:09.922Z,99415.00
2023-05-16T08:22:37.907Z,99425.00
2023-05-16T08:25:07.348Z,99428.00
2023-05-16T08:27:35.310Z,99424.00
2023-05-16T08:30:03.475Z,99416.00
2023-05-16T08:32:31.549Z,99422.00
2023-05-16T08:35:01.386Z,99428.00
2023-05-16T08:37:29.454Z,99422.00
2023-05-16T08:39:57.537Z,99428.00
2023-05-16T08:42:25.887Z,99429.00
2023-05-16T08:44:53.935Z,99433.00
2023-05-16T08:47:25.911Z,99439.00
2023-05-16T08:49:59.894Z,99454.00
2023-05-16T08:52:30.133Z,99461.00
2023-05-16T08:55:10.087Z,99459.00
2023-05-16T08:57:39.792Z,99460.00
2023-05-16T09:00:12.765Z,99443.00
2023-05-16T09:02:41.745Z,99457.00
2023-05-16T09:05:15.757Z,99465.00
2023-05-16T09:07:45.015Z,99461.00
2023-05-16T09:10:14.415Z,99463.00
2023-05-16T09:12:43.414Z,99474.00
2023-05-16T09:15:12.799Z,99475.00
2023-05-16T09:17:44.451Z,99480.00
2023-05-16T09:20:17.677Z,99469.00
2023-05-16T09:22:54.077Z,99467.00
2023-05-16T09:25:30.298Z,99477.00
2023-05-16T09:28:03.052Z,99475.00
2023-05-16T09:30:34.103Z,99475.00
2023-05-16T09:33:02.876Z,99469.00
2023-05-16T09:38:03.823Z,99487.00
2023-05-16T09:40:31.962Z,99490.00
2023-05-16T09:43:08.605Z,99483.00
2023-05-16T09:45:38.733Z,99488.00
2023-05-16T09:48:09.530Z,99499.00
2023-05-16T09:50:39.021Z,99495.00
2023-05-16T09:53:07.688Z,99490.00
2023-05-16T09:55:36.206Z,99495.00
2023-05-16T09:58:04.174Z,99498.00
2023-05-16T10:00:34.111Z,99507.00
2023-05-16T10:03:05.638Z,99504.00
2023-05-16T10:05:34.933Z,99504.00
2023-05-16T10:08:06.130Z,99502.00
2023-05-16T10:10:39.329Z,99508.00
2023-05-16T10:13:09.236Z,99500.00
2023-05-16T10:15:39.425Z,99502.00
2023-05-16T10:18:13.092Z,99501.00
2023-05-16T10:20:44.713Z,99497.00
2023-05-16T10:23:22.499Z,99495.00
2023-05-16T10:25:51.041Z,99491.00
2023-05-16T10:28:19.344Z,99488.00
2023-05-16T10:30:48.747Z,99493.00
2023-05-16T10:33:19.771Z,99491.00
2023-05-16T10:35:48.394Z,99468.00
2023-05-16T10:38:20.259Z,99479.00
2023-05-16T10:40:49.830Z,99480.00
2023-05-16T10:43:26.648Z,99486.00
2023-05-16T10:45:59.572Z,99480.00
2023-05-16T10:48:32.169Z,99481.00
2023-05-16T10:51:00.555Z,99486.00
2023-05-16T10:53:35.427Z,99496.00
2023-05-16T10:56:13.574Z,99489.00
2023-05-16T10:58:48.011Z,99490.00
2023-05-16T11:01:18.257Z,99499.00
2023-05-16T11:04:06.372Z,99492.00
2023-05-16T11:06:36.533Z,99508.00
2023-05-16T11:09:10.382Z,99503.00
2023-05-16T11:11:48.999Z,99500.00
2023-05-16T11:14:23.477Z,99505.00
2023-05-16T11:16:53.456Z,99500.00
2023-05-16T11:19:34.916Z,99501.00
2023-05-16T11:22:26.702Z,99494.00
2023-05-16T11:25:00.175Z,99485.00
2023-05-16T11:27:31.038Z,99495.00
2023-05-16T11:30:04.179Z,99499.00
2023-05-16T11:32:35.179Z,99495.00
2023-05-16T11:35:04.626Z,99497.00
2023-05-16T11:37:32.714Z,99490.00
2023-05-16T11:40:04.140Z,99489.00
2023-05-16T11:42:33.960Z,99481.00
2023-05-16T11:45:07.775Z,99472.00
2023-05-16T11:47:38.369Z,99471.00
2023-05-16T11:50:09.981Z,99482.00
2023-05-16T11:52:39.002Z,99484.00
2023-05-16T11:55:11.428Z,99499.00
2023-05-16T11:57:41.994Z,99483.00
2023-05-16T12:00:17.702Z,99483.00
2023-05-16T12:02:47.936Z,99498.00
2023-05-16T12:05:17.639Z,99492.00
2023-05-16T12:07:46.596Z,99495.00
2023-05-16T12:10:17.948Z,99494.00
2023-05-16T12:12:51.612Z,99488.00
2023-05-16T12:15:21.188Z,99493.00
2023-05-16T12:17:50.715Z,99477.00
2023-05-16T12:20:19.220Z,99488.00
2023-05-16T12:22:48.054Z,99497.00
2023-05-16T12:25:32.784Z,99491.00
2023-05-16T12:28:03.036Z,99498.00
2023-05-16T12:30:33.429Z,99497.00
2023-05-16T12:33:07.652Z,99494.00
2023-05-16T12:35:40.265Z,99498.00
2023-05-16T12:38:10.568Z,99499.00
2023-05-16T12:40:42.017Z,99505.00
2023-05-16T12:43:15.445Z,99511.00
2023-05-16T12:45:44.406Z,99533.00
2023-05-16T12:48:16.090Z,99545.00
2023-05-16T12:50:46.578Z,99564.00
2023-05-16T12:53:16.447Z,99563.00
2023-05-16T12:55:46.523Z,99562.00
2023-05-16T12:58:14.728Z,99550.00
2023-05-16T13:00:43.002Z,99549.00
2023-05-16T13:03:11.117Z,99550.00
2023-05-16T13:05:39.299Z,99549.00
2023-05-16T13:08:07.710Z,99551.00
2023-05-16T13:10:36.092Z,99560.00
2023-05-16T13:13:05.369Z,99555.00
2023-05-16T13:15:33.318Z,99567.00
2023-05-16T13:18:01.351Z,99565.00
2023-05-16T13:20:29.366Z,99571.00
2023-05-16T13:22:57.356Z,99563.00
2023-05-16T13:25:25.471Z,99575.00
2023-05-16T13:27:53.507Z,99574.00
2023-05-16T13:30:22.785Z,99579.00
2023-05-16T13:32:52.271Z,99579.00
2023-05-16T13:35:20.660Z,99575.00
2023-05-16T13:37:48.624Z,99576.00
2023-05-16T13:40:17.313Z,99582.00
2023-05-16T13:42:45.384Z,99578.00
2023-05-16T13:45:13.674Z,99578.00
2023-05-16T13:47:42.998Z,99580.00
2023-05-16T13:50:12.233Z,99579.00
2023-05-16T13:52:40.545Z,99589.00
2023-05-16T13:55:09.525Z,99584.00
2023-05-16T13:57:37.912Z,99579.00
2023-05-16T14:00:35.272Z,99582.00
2023-05-16T14:03:01.836Z,99583.00
2023-05-16T14:05:30.103Z,99582.00
2023-05-16T14:07:58.066Z,99571.00
2023-05-16T14:10:26.534Z,99571.00
2023-05-16T14:12:54.760Z,99562.00
2023-05-16T14:15:22.739Z,99555.00
2023-05-16T14:17:51.051Z,99560.00
2023-05-16T14:20:20.495Z,99568.00
2023-05-16T14:22:48.602Z,99550.00
2023-05-16T14:25:16.702Z,99554.00
2023-05-16T14:27:44.640Z,99561.00
2023-05-16T14:30:14.176Z,99560.00
2023-05-16T14:32:42.273Z,99555.00
2023-05-16T14:35:11.117Z,99556.00
2023-05-16T14:37:40.518Z,99564.00
2023-05-16T14:40:10.243Z,99557.00
2023-05-16T14:42:38.219Z,99569.00
2023-05-16T14:45:07.620Z,99564.00
2023-05-16T14:47:35.674Z,99557.00
2023-05-16T14:50:03.639Z,99555.00
2023-05-16T14:52:31.577Z,99555.00
2023-05-16T14:55:02.021Z,99564.00
2023-05-16T14:57:30.145Z,99563.00
2023-05-16T14:59:58.526Z,99568.00
2023-05-16T15:02:27.250Z,99553.00
2023-05-16T15:04:55.465Z,99551.00
2023-05-16T15:07:23.619Z,99555.00
2023-05-16T15:09:51.698Z,99552.00
2023-05-16T15:12:21.691Z,99547.00
2023-05-16T15:14:50.187Z,99552.00
2023-05-16T15:17:18.902Z,99545.00
2023-05-16T15:19:47.971Z,99540.00
2023-05-16T15:22:16.370Z,99561.00
2023-05-16T15:24:44.411Z,99568.00
2023-05-16T15:27:12.513Z,99574.00
2023-05-16T15:29:41.743Z,99561.00
2023-05-16T15:32:11.301Z,99552.00
2023-05-16T15:34:39.385Z,99551.00
2023-05-16T15:37:07.408Z,99554.00
2023-05-16T15:39:36.059Z,99549.00
2023-05-16T15:44:36.949Z,99552.00
2023-05-16T15:47:07.460Z,99547.00
2023-05-16T15:49:35.378Z,99549.00
2023-05-16T15:52:03.641Z,99542.00
2023-05-16T15:54:31.684Z,99530.00
2023-05-16T15:56:59.691Z,99545.00
2023-05-16T15:59:27.628Z,99544.00
2023-05-16T16:01:55.618Z,99538.00
2023-05-16T16:04:24.953Z,99535.00
2023-05-16T16:06:52.958Z,99538.00
2023-05-16T16:09:21.068Z,99539.00
2023-05-16T16:11:49.702Z,99533.00
2023-05-16T16:14:17.636Z,99526.00
2023-05-16T16:16:45.726Z,99531.00
2023-05-16T16:19:13.739Z,99530.00
2023-05-16T16:21:43.003Z,99532.00
2023-05-16T16:24:11.062Z,99531.00
2023-05-16T16:26:38.999Z,99536.00
2023-05-16T16:29:07.327Z,99536.00
2023-05-16T16:31:35.494Z,99540.00
2023-05-16T16:34:04.113Z,99522.00
2023-05-16T16:36:32.306Z,99537.00
2023-05-16T16:39:01.805Z,99536.00
2023-05-16T16:41:29.764Z,99534.00
2023-05-16T16:43:57.768Z,99533.00
2023-05-16T16:46:25.988Z,99533.00
2023-05-16T16:48:54.767Z,99537.00
2023-05-16T16:51:22.884Z,99537.00
2023-05-16T16:53:51.262Z,99538.00
2023-05-16T16:56:21.668Z,99547.00
2023-05-16T16:58:49.706Z,99550.00
2023-05-16T17:01:18.062Z,99546.00
2023-05-16T17:03:46.125Z,99561.00
2023-05-16T17:06:14.553Z,99562.00
2023-05-16T17:08:43.361Z,99572.00
2023-05-16T17:11:11.400Z,99573.00
2023-05-16T17:13:41.937Z,99582.00
2023-05-16T17:16:11.699Z,99574.00
2023-05-16T17:18:40.884Z,99580.00
2023-05-16T17:21:12.340Z,99590.00
2023-05-16T17:23:43.858Z,99585.00
2023-05-16T17:26:13.402Z,99588.00
2023-05-16T17:28:42.694Z,99592.00
2023-05-16T17:31:10.648Z,99592.00
2023-05-16T17:33:38.611Z,99593.00
2023-05-16T17:36:07.634Z,99585.00
2023-05-16T17:38:35.875Z,99588.00
2023-05-16T17:41:04.146Z,99586.00
2023-05-16T17:43:32.138Z,99590.00
2023-05-16T17:46:01.515Z,99595.00
2023-05-16T17:48:29.456Z,99594.00
2023-05-16T17:50:57.469Z,99593.00
2023-05-16T17:53:27.596Z,99589.00
2023-05-16T17:55:55.544Z,99594.00
2023-05-16T17:58:24.603Z,99597.00
2023-05-16T18:00:52.792Z,99600.00
2023-05-16T18:03:22.176Z,99615.00
2023-05-16T18:05:51.077Z,99607.00
2023-05-16T18:08:19.323Z,99609.00
2023-05-16T18:10:52.205Z,99608.00
2023-05-16T18:13:20.665Z,99607.00
2023-05-16T18:15:48.934Z,99612.00
2023-05-16T18:18:18.558Z,99618.00
2023-05-16T18:20:48.403Z,99615.00
2023-05-16T18:23:16.358Z,99619.00
2023-05-16T18:25:44.280Z,99614.00
2023-05-16T18:28:12.244Z,99628.00
2023-05-16T18:30:40.996Z,99634.00
2023-05-16T18:33:09.130Z,99635.00
2023-05-16T18:35:37.670Z,99636.00
2023-05-16T18:38:09.062Z,99627.00
2023-05-16T18:40:40.512Z,99612.00
2023-05-16T18:43:08.549Z,99625.00
2023-05-16T18:45:36.468Z,99631.00
2023-05-16T18:48:05.003Z,99636.00
2023-05-16T18:50:33.485Z,99644.00
2023-05-16T18:53:01.538Z,99650.00
2023-05-16T18:55:31.243Z,99646.00
2023-05-16T18:57:59.219Z,99651.00
2023-05-16T19:00:27.193Z,99653.00
2023-05-16T19:02:55.105Z,99676.00
2023-05-16T19:05:23.786Z,99662.00
2023-05-16T19:07:52.011Z,99667.00
2023-05-16T19:10:20.324Z,99663.00
2023-05-16T19:12:49.894Z,99674.00
2023-05-16T19:15:17.901Z,99674.00
2023-05-16T19:17:46.279Z,99676.00
2023-05-16T19:20:14.345Z,99684.00
2023-05-16T19:22:42.312Z,99674.00
2023-05-16T19:25:11.194Z,99687.00
2023-05-16T19:27:39.254Z,99689.00
2023-05-16T19:30:10.226Z,99690.00
2023-05-16T19:32:38.302Z,99698.00
2023-05-16T19:35:07.482Z,99687.00
2023-05-16T19:37:35.495Z,99702.00
2023-05-16T19:40:03.598Z,99703.00
2023-05-16T19:42:31.573Z,99711.00
2023-05-16T19:44:59.563Z,99711.00
2023-05-16T19:47:29.103Z,99712.00
2023-05-16T19:49:57.140Z,99713.00
2023-05-16T19:52:26.075Z,99715.00
2023-05-16T19:54:54.196Z,99708.00
2023-05-16T19:57:22.457Z,99717.00
2023-05-16T19:59:50.758Z,99696.00
2023-05-16T20:02:21.135Z,99716.00
2023-05-16T20:04:52.287Z,99714.00
2023-05-16T20:07:20.653Z,99718.00
2023-05-16T20:09:48.710Z,99728.00
2023-05-16T20:12:16.803Z,99730.00
2023-05-16T20:14:44.938Z,99728.00
2023-05-16T20:17:13.004Z,99730.00
2023-05-16T20:19:43.808Z,99733.00
2023-05-16T20:22:13.518Z,99733.00
2023-05-16T20:24:41.558Z,99735.00
2023-05-16T20:27:09.568Z,99733.00
2023-05-16T20:29:37.712Z,99739.00
2023-05-16T20:32:06.209Z,99736.00
2023-05-16T20:34:34.195Z,99722.00
2023-05-16T20:37:02.177Z,99754.00
2023-05-16T20:39:31.759Z,99745.00
2023-05-16T20:41:59.936Z,99738.00
2023-05-16T20:44:28.808Z,99747.00
2023-05-16T20:46:56.969Z,99752.00
2023-05-16T20:49:24.980Z,99744.00
2023-05-16T20:51:53.126Z,99757.00
2023-05-16T20:54:21.133Z,99765.00
2023-05-16T20:56:50.537Z,99763.00
2023-05-16T20:59:18.510Z,99766.00
2023-05-16T21:01:46.539Z,99763.00
2023-05-16T21:04:14.576Z,99767.00
2023-05-16T21:06:42.576Z,99774.00
2023-05-16T21:09:10.766Z,99779.00
2023-05-16T21:11:38.712Z,99775.00
2023-05-16T21:14:08.445Z,99771.00
2023-05-16T21:16:36.419Z,99774.00
2023-05-16T21:19:04.704Z,99788.00
2023-05-16T21:21:32.947Z,99782.00
2023-05-16T21:24:00.930Z,99782.00
2023-05-16T21:26:28.876Z,99784.00
2023-05-16T21:28:57.061Z,99787.00
2023-05-16T21:31:26.476Z,99789.00
2023-05-16T21:33:54.627Z,99784.00
2023-05-16T21:36:23.134Z,99786.00
2023-05-16T21:38:51.595Z,99780.00
2023-05-16T21:41:21.678Z,99787.00
2023-05-16T21:43:49.854Z,99778.00
2023-05-16T21:46:17.977Z,99778.00
2023-05-16T21:48:47.377Z,99777.00
2023-05-16T21:51:15.433Z,99774.00
2023-05-16T21:53:43.446Z,99780.00
2023-05-16T21:56:11.472Z,99779.00
2023-05-16T21:58:39.586Z,99782.00
2023-05-16T22:01:07.683Z,99788.00
2023-05-16T22:03:35.787Z,99789.00
2023-05-16T22:06:05.533Z,99792.00
2023-05-16T22:08:33.539Z,99801.00
2023-05-16T22:11:01.532Z,99797.00
2023-05-16T22:13:29.508Z,99796.00
2023-05-16T22:16:04.436Z,99801.00
2023-05-16T22:18:34.158Z,99800.00
2023-05-16T22:21:02.443Z,99802.00
2023-05-16T22:23:31.714Z,99801.00
2023-05-16T22:25:59.680Z,99798.00
2023-05-16T22:28:27.653Z,99803.00
2023-05-16T22:30:55.650Z,99808.00
2023-05-16T22:33:23.987Z,99798.00
2023-05-16T22:35:52.262Z,99804.00
2023-05-16T22:38:20.311Z,99802.00
2023-05-16T22:40:49.660Z,99821.00
2023-05-16T22:43:17.646Z,99820.00
2023-05-16T22:45:45.735Z,99812.00
2023-05-16T22:48:13.811Z,99822.00
2023-05-16T22:50:41.922Z,99822.00
2023-05-16T22:53:09.892Z,99830.00
2023-05-16T22:55:37.886Z,99825.00
2023-05-16T22:58:07.277Z,99813.00
2023-05-16T23:00:35.533Z,99829.00
2023-05-16T23:03:03.673Z,99824.00
2023-05-16T23:05:31.857Z,99833.00
2023-05-16T23:07:59.856Z,99840.00
2023-05-16T23:10:27.950Z,99841.00
2023-05-16T23:12:56.172Z,99830.00
2023-05-16T23:15:25.746Z,99837.00
2023-05-16T23:17:54.138Z,99839.00
2023-05-16T23:20:22.452Z,99851.00
2023-05-16T23:22:50.563Z,99849.00
2023-05-16T23:25:18.531Z,99849.00
2023-05-16T23:27:46.491Z,99843.00
2023-05-16T23:30:15.571Z,99849.00
2023-05-16T23:32:44.873Z,99858.00
2023-05-16T23:35:12.812Z,99859.00
2023-05-16T23:37:40.826Z,99852.00
2023-05-16T23:40:10.398Z,99858.00
2023-05-16T23:42:40.805Z,99854.00
2023-05-16T23:45:10.237Z,99866.00
2023-05-16T23:47:38.423Z,99866.00
2023-05-16T23:50:09.182Z,99862.00
2023-05-16T23:52:37.253Z,99862.00
2023-05-16T23:55:06.095Z,99863.00
2023-05-16T23:57:34.222Z,99865.00
